Murrieta, CA (92563)

10:09 PM PDT on July 24, 2017 (GMT -0700)
Cresta Del Reyo | | Change Station
Active Advisory: Flood Warning

Elev 1305 ft 33.57 °N, 117.14 °W | Updated 3 minutes ago

Scattered Clouds
Scattered Clouds
70.7 °F
Feels Like 74 °F
N
3.1
Wind Variable Wind from SE
Gusts 5.0 mph

Today
High -- | Low -- °F
--% Chance of Precip.
Yesterday
High -- | Low -- °F
Precip. -- in
Pressure 29.96 in
Visibility 10.0 miles
Clouds Scattered Clouds 11000 ft
Heat Index 74 °F
Dew Point 60 °F
Humidity 69%
Rainfall 0.00 in
Snow Depth Not available.
5:55 AM 7:54 PM
Waxing Crescent, 4% visible
METAR KF70 250455Z AUTO 18006KT 10SM SCT110 20/13 A2996 RMK AO1
Pressure 29.96 in
Visibility 10.0 miles
Clouds Scattered Clouds 11000 ft
Heat Index 74 °F
Dew Point 60 °F
Humidity 69%
Rainfall 0.00 in
Snow Depth Not available.
5:55 AM 7:54 PM
Waxing Crescent, 4% visible
METAR KF70 250455Z AUTO 18006KT 10SM SCT110 20/13 A2996 RMK AO1

Get Your Daily Forecast Email!

Thanks for signing up!

Be on the lookout for a verification email in your inbox.

You'll start receiving severe weather alerts in your inbox..

×

10-Day Weather Forecast

Almanac

Astronomy

Jul. 24, 2017 Rise Set
Actual Time
Civil Twilight
Nautical Twilight
Astronomical Twilight
Moon
Length of Visible Light
Length of Day
Tomorrow will be .
, % of the Moon is Illuminated

Today's Extremes

State Highs State Lows

Community

WunderPhotos

Category 6

Welcome to Category 6. This is the collective home for Weather Underground's featured writeups by Dr. Jeff Masters (right), Bob Henson (left), Chris Burt, and other regular contributors.

Nearby

Air Quality

  Air Quality AQ Index Pollutant
Not available.

Snow Depth

Station Depth Elevation

Earthquake Activity

City Distance Mag. Time & Date
Minimum magnitude displayed is 2.5.

Coastal Water Temperatures

Place Temperature

Stations

Nearby Weather Stations

Station Location Temp. Windchill Dew Point Humidity Wind Precip. Elev Updated Type
                   

Watches & Warnings

Flood Warning
Issued: 9:55 PM PDT Jul. 24, 2017 – National Weather Service

... The Flash Flood Warning for south central San Bernardino County
will expire at 1000 PM PDT...

Heavy rain was ending in the area from Amboy to Essex. Although no
new flooding is expected, Amboy Road was reported to be flooded out
and flooding is also possible on National trails Highway. Please
continue to heed any remaining Road closures.

Lat... Lon 3500 11506 3479 11504 3412 11576 3461 11577


Morgan